createdAt,value
2017-12-28T00:02:06.512Z,14.03
2017-12-28T00:04:34.512Z,14.77
2017-12-28T00:07:02.351Z,13.73
2017-12-28T00:09:30.108Z,15.43
2017-12-28T00:11:57.785Z,13.43
2017-12-28T00:14:26.588Z,14.53
2017-12-28T00:16:54.290Z,14.77
2017-12-28T00:19:22.033Z,10.50
2017-12-28T00:21:49.640Z,4.53
2017-12-28T00:24:17.251Z,3.83
2017-12-28T00:26:45.615Z,4.33
2017-12-28T00:29:13.260Z,5.20
2017-12-28T00:31:40.861Z,2.63
2017-12-28T00:34:09.397Z,3.83
2017-12-28T00:36:37.244Z,3.73
2017-12-28T00:39:05.455Z,3.60
2017-12-28T00:41:34.407Z,4.17
2017-12-28T00:44:04.660Z,4.00
2017-12-28T00:46:32.485Z,4.00
2017-12-28T00:49:00.157Z,4.00
2017-12-28T00:51:29.439Z,3.90
2017-12-28T00:53:58.283Z,3.83
2017-12-28T00:56:26.147Z,3.63
2017-12-28T00:58:53.829Z,3.20
2017-12-28T01:01:21.510Z,3.10
2017-12-28T01:03:49.918Z,3.23
2017-12-28T01:06:18.104Z,2.97
2017-12-28T01:08:45.943Z,3.43
2017-12-28T01:11:14.664Z,3.13
2017-12-28T01:13:42.409Z,2.73
2017-12-28T01:16:10.074Z,2.80
2017-12-28T01:18:38.062Z,2.90
2017-12-28T01:21:05.653Z,2.87
2017-12-28T01:23:33.575Z,3.00
2017-12-28T01:26:05.730Z,3.20
2017-12-28T01:28:33.352Z,2.97
2017-12-28T01:31:01.038Z,2.70
2017-12-28T01:33:28.635Z,2.83
2017-12-28T01:35:56.229Z,2.70
2017-12-28T01:38:23.926Z,2.60
2017-12-28T01:40:51.653Z,2.50
2017-12-28T01:43:19.360Z,2.30
2017-12-28T01:45:47.036Z,2.60
2017-12-28T01:48:15.504Z,1.90
2017-12-28T01:50:43.890Z,1.90
2017-12-28T01:53:12.193Z,1.80
2017-12-28T01:55:45.681Z,1.67
2017-12-28T01:58:13.519Z,1.80
2017-12-28T02:00:41.161Z,2.00
2017-12-28T02:03:09.464Z,1.47
2017-12-28T02:05:37.245Z,1.37
2017-12-28T02:08:05.890Z,1.40
2017-12-28T02:10:33.502Z,1.30
2017-12-28T02:13:01.216Z,1.47
2017-12-28T02:15:28.902Z,1.73
2017-12-28T02:17:56.671Z,1.63
2017-12-28T02:20:24.423Z,1.43
2017-12-28T02:22:53.148Z,1.50
2017-12-28T02:25:20.985Z,1.67
2017-12-28T02:27:48.949Z,1.70
2017-12-28T02:30:17.005Z,1.40
2017-12-28T02:32:44.727Z,1.73
2017-12-28T02:35:12.462Z,1.50
2017-12-28T02:37:40.374Z,1.90
2017-12-28T02:40:08.152Z,2.50
2017-12-28T02:42:35.889Z,2.20
2017-12-28T02:45:04.462Z,2.07
2017-12-28T02:47:32.181Z,2.20
2017-12-28T02:49:59.881Z,2.30
2017-12-28T02:52:28.312Z,2.40
2017-12-28T02:54:59.681Z,2.20
2017-12-28T02:57:27.831Z,1.70
2017-12-28T02:59:55.831Z,2.00
2017-12-28T03:02:23.918Z,1.70
2017-12-28T03:04:51.665Z,2.57
2017-12-28T03:07:19.736Z,2.50
2017-12-28T03:09:48.367Z,2.10
2017-12-28T03:12:16.063Z,2.20
2017-12-28T03:14:44.159Z,2.00
2017-12-28T03:17:12.011Z,2.07
2017-12-28T03:19:41.720Z,1.80
2017-12-28T03:22:09.377Z,2.37
2017-12-28T03:24:38.376Z,1.80
2017-12-28T03:27:06.113Z,1.50
2017-12-28T03:29:34.562Z,1.87
2017-12-28T03:32:02.285Z,2.10
2017-12-28T03:34:30.413Z,2.23
2017-12-28T03:36:58.890Z,2.57
2017-12-28T03:39:26.624Z,2.27
2017-12-28T03:41:54.339Z,2.60
2017-12-28T03:44:22.080Z,2.90
2017-12-28T03:46:50.593Z,2.50
2017-12-28T03:49:18.525Z,2.57
2017-12-28T03:51:46.222Z,2.20
2017-12-28T03:54:17.736Z,2.43
2017-12-28T03:56:46.146Z,2.60
2017-12-28T03:59:15.288Z,2.57
2017-12-28T04:01:44.545Z,2.27
2017-12-28T04:04:13.149Z,2.67
2017-12-28T04:06:40.886Z,3.20
2017-12-28T04:09:09.439Z,2.70
2017-12-28T04:11:37.640Z,2.40
2017-12-28T04:14:08.912Z,2.80
2017-12-28T04:16:37.891Z,2.40
2017-12-28T04:19:05.622Z,3.13
2017-12-28T04:21:34.000Z,2.70
2017-12-28T04:24:02.399Z,2.67
2017-12-28T04:26:30.695Z,2.83
2017-12-28T04:28:59.192Z,3.17
2017-12-28T04:31:27.615Z,2.80
2017-12-28T04:33:55.432Z,3.23
2017-12-28T04:36:23.185Z,2.50
2017-12-28T04:38:50.918Z,2.40
2017-12-28T04:41:18.623Z,3.53
2017-12-28T04:43:47.136Z,2.90
2017-12-28T04:46:14.867Z,2.30
2017-12-28T04:48:42.576Z,2.57
2017-12-28T04:51:10.267Z,2.40
2017-12-28T04:53:38.538Z,2.60
2017-12-28T04:56:06.309Z,2.50
2017-12-28T04:58:34.030Z,3.20
2017-12-28T05:01:01.723Z,3.90
2017-12-28T05:03:29.405Z,2.73
2017-12-28T05:06:00.351Z,3.33
2017-12-28T05:08:28.046Z,2.90
2017-12-28T05:10:55.902Z,2.80
2017-12-28T05:13:24.329Z,2.80
2017-12-28T05:15:52.035Z,3.00
2017-12-28T05:18:19.780Z,2.97
2017-12-28T05:20:47.487Z,3.00
2017-12-28T05:23:15.184Z,3.73
2017-12-28T05:25:42.876Z,3.03
2017-12-28T05:28:10.583Z,3.83
2017-12-28T05:30:39.269Z,2.70
2017-12-28T05:33:07.082Z,4.30
2017-12-28T05:35:34.896Z,3.10
2017-12-28T05:38:02.615Z,3.00
2017-12-28T05:40:30.312Z,2.80
2017-12-28T05:42:58.041Z,3.03
2017-12-28T05:45:25.729Z,3.50
2017-12-28T05:47:53.443Z,3.27
2017-12-28T05:50:21.168Z,2.87
2017-12-28T05:52:48.841Z,4.57
2017-12-28T05:55:17.340Z,3.30
2017-12-28T05:57:45.075Z,3.50
2017-12-28T06:00:12.823Z,3.37
2017-12-28T06:02:40.561Z,3.77
2017-12-28T06:05:08.323Z,3.03
2017-12-28T06:07:36.046Z,2.67
2017-12-28T06:10:04.488Z,3.40
2017-12-28T06:12:32.186Z,3.50
2017-12-28T06:15:00.686Z,2.67
2017-12-28T06:17:28.435Z,2.77
2017-12-28T06:19:56.144Z,3.20
2017-12-28T06:22:23.838Z,3.00
2017-12-28T06:24:51.540Z,3.10
2017-12-28T06:27:20.052Z,3.00
2017-12-28T06:29:47.738Z,2.70
2017-12-28T06:32:15.468Z,2.70
2017-12-28T06:34:50.443Z,3.20
2017-12-28T06:37:18.180Z,3.07
2017-12-28T06:39:45.849Z,2.83
2017-12-28T06:42:13.573Z,3.10
2017-12-28T06:44:42.051Z,3.03
2017-12-28T06:47:10.542Z,2.37
2017-12-28T06:49:39.011Z,2.33
2017-12-28T06:52:06.778Z,3.17
2017-12-28T06:54:35.253Z,2.93
2017-12-28T06:57:03.748Z,3.33
2017-12-28T06:59:31.445Z,3.40
2017-12-28T07:01:59.123Z,2.67
2017-12-28T07:04:28.899Z,3.23
2017-12-28T07:06:56.630Z,2.80
2017-12-28T07:09:24.341Z,2.97
2017-12-28T07:11:52.052Z,2.87
2017-12-28T07:14:19.766Z,3.00
2017-12-28T07:16:47.464Z,2.77
2017-12-28T07:19:15.159Z,3.17
2017-12-28T07:21:42.854Z,4.13
2017-12-28T07:24:10.706Z,3.00
2017-12-28T07:26:39.138Z,2.90
2017-12-28T07:29:06.854Z,3.47
2017-12-28T07:31:34.547Z,2.73
2017-12-28T07:34:02.309Z,2.70
2017-12-28T07:36:30.018Z,2.90
2017-12-28T07:38:57.653Z,3.60
2017-12-28T07:41:25.426Z,3.03
2017-12-28T07:43:53.173Z,3.40
2017-12-28T07:46:20.873Z,5.73
2017-12-28T07:48:48.603Z,8.07
2017-12-28T07:51:16.339Z,8.20
2017-12-28T07:53:44.054Z,8.30
2017-12-28T07:56:11.801Z,6.43
2017-12-28T07:58:39.524Z,6.93
2017-12-28T08:01:07.254Z,5.90
2017-12-28T08:03:34.968Z,7.37
2017-12-28T08:06:02.688Z,7.63
2017-12-28T08:08:30.380Z,6.93
2017-12-28T08:10:58.867Z,4.50
2017-12-28T08:13:27.361Z,4.50
2017-12-28T08:15:56.430Z,3.67
2017-12-28T08:18:29.851Z,3.80
2017-12-28T08:20:57.876Z,3.17
2017-12-28T08:23:25.566Z,3.50
2017-12-28T08:25:53.274Z,3.43
2017-12-28T08:28:21.756Z,4.40
2017-12-28T08:30:49.461Z,3.53
2017-12-28T08:33:17.173Z,3.83
2017-12-28T08:35:44.877Z,3.20
2017-12-28T08:38:12.529Z,3.30
2017-12-28T08:40:40.185Z,2.97
2017-12-28T08:43:07.901Z,3.63
2017-12-28T08:45:37.391Z,3.67
2017-12-28T08:48:05.092Z,3.43
2017-12-28T08:50:32.801Z,3.63
2017-12-28T08:53:00.551Z,2.93
2017-12-28T08:55:28.306Z,4.67
2017-12-28T08:57:55.947Z,3.20
2017-12-28T09:00:23.650Z,3.20
2017-12-28T09:02:51.338Z,3.53
2017-12-28T09:05:19.008Z,2.97
2017-12-28T09:07:51.004Z,3.20
2017-12-28T09:10:19.941Z,4.40
2017-12-28T09:12:47.640Z,3.73
2017-12-28T09:15:16.175Z,3.30
2017-12-28T09:17:43.844Z,3.10
2017-12-28T09:20:11.453Z,3.97
2017-12-28T09:22:40.252Z,4.00
2017-12-28T09:25:07.978Z,3.57
2017-12-28T09:27:35.681Z,3.33
2017-12-28T09:30:04.311Z,3.63
2017-12-28T09:32:32.257Z,3.20
2017-12-28T09:35:03.103Z,3.57
2017-12-28T09:37:30.876Z,3.17
2017-12-28T09:39:58.552Z,3.43
2017-12-28T09:42:27.423Z,3.67
2017-12-28T09:44:55.616Z,3.50
2017-12-28T09:47:23.333Z,3.27
2017-12-28T09:49:51.043Z,3.47
2017-12-28T09:52:18.720Z,2.97
2017-12-28T09:54:46.429Z,4.60
2017-12-28T09:57:14.135Z,3.40
2017-12-28T09:59:41.889Z,3.13
2017-12-28T10:02:09.645Z,3.37
2017-12-28T10:04:38.458Z,3.40
2017-12-28T10:07:06.192Z,3.10
2017-12-28T10:09:33.867Z,3.40
2017-12-28T10:12:01.563Z,3.80
2017-12-28T10:14:29.251Z,3.43
2017-12-28T10:16:56.950Z,2.90
2017-12-28T10:19:24.646Z,3.10
2017-12-28T10:21:52.276Z,3.63
2017-12-28T10:24:19.992Z,3.20
2017-12-28T10:26:47.684Z,3.10
2017-12-28T10:29:16.147Z,3.27
2017-12-28T10:31:43.899Z,3.57
2017-12-28T10:34:12.611Z,3.50
2017-12-28T10:36:40.276Z,3.30
2017-12-28T10:39:08.773Z,3.03
2017-12-28T10:41:36.488Z,3.60
2017-12-28T10:44:04.184Z,3.20
2017-12-28T10:46:32.663Z,3.30
2017-12-28T10:49:00.992Z,4.40
2017-12-28T10:51:28.690Z,3.07
2017-12-28T10:53:56.392Z,4.00
2017-12-28T10:56:24.094Z,3.00
2017-12-28T10:58:51.809Z,4.00
2017-12-28T11:01:19.553Z,3.83
2017-12-28T11:03:47.247Z,3.40
2017-12-28T11:06:14.960Z,3.67
2017-12-28T11:08:42.677Z,3.70
2017-12-28T11:11:10.410Z,3.20
2017-12-28T11:13:38.106Z,4.10
2017-12-28T11:16:05.765Z,4.13
2017-12-28T11:18:33.411Z,3.77
2017-12-28T11:21:01.130Z,3.77
2017-12-28T11:23:28.820Z,3.70
2017-12-28T11:25:57.511Z,3.77
2017-12-28T11:28:25.233Z,3.80
2017-12-28T11:30:53.168Z,4.27
2017-12-28T11:33:26.100Z,3.30
2017-12-28T11:35:54.030Z,3.87
2017-12-28T11:38:21.734Z,3.73
2017-12-28T11:40:49.416Z,3.90
2017-12-28T11:43:17.133Z,3.80
2017-12-28T11:45:45.830Z,3.30
2017-12-28T11:48:13.555Z,3.97
2017-12-28T11:50:42.041Z,3.20
2017-12-28T11:53:09.825Z,3.53
2017-12-28T11:55:43.324Z,3.63
2017-12-28T11:58:11.134Z,3.23
2017-12-28T12:00:44.298Z,3.43
2017-12-28T12:03:12.061Z,3.50
2017-12-28T12:05:45.296Z,3.37
2017-12-28T12:08:18.505Z,2.80
2017-12-28T12:10:51.133Z,3.07
2017-12-28T12:13:18.810Z,2.60
2017-12-28T12:15:46.516Z,3.00
2017-12-28T12:18:14.277Z,3.10
2017-12-28T12:20:41.974Z,3.13
2017-12-28T12:23:09.742Z,2.60
2017-12-28T12:25:37.422Z,2.60
2017-12-28T12:28:05.147Z,2.90
2017-12-28T12:30:32.870Z,2.50
2017-12-28T12:33:00.592Z,3.30
2017-12-28T12:35:28.309Z,2.67
2017-12-28T12:37:56.022Z,2.70
2017-12-28T12:40:23.702Z,2.60
2017-12-28T12:42:51.402Z,2.80
2017-12-28T12:45:20.025Z,2.60
2017-12-28T12:47:48.499Z,2.77
2017-12-28T12:50:16.236Z,2.50
2017-12-28T12:52:43.973Z,2.77
2017-12-28T12:55:11.659Z,2.80
2017-12-28T12:57:39.382Z,2.53
2017-12-28T13:00:07.094Z,3.07
2017-12-28T13:02:34.857Z,2.97
2017-12-28T13:05:02.494Z,3.20
2017-12-28T13:07:30.205Z,3.20
2017-12-28T13:09:57.886Z,3.60
2017-12-28T13:12:25.599Z,3.20
2017-12-28T13:14:54.237Z,3.10
2017-12-28T13:17:22.000Z,3.40
2017-12-28T13:19:49.664Z,3.40
2017-12-28T13:22:18.153Z,3.70
2017-12-28T13:24:45.869Z,3.60
2017-12-28T13:27:13.590Z,3.23
2017-12-28T13:29:41.300Z,3.13
2017-12-28T13:32:08.985Z,3.57
2017-12-28T13:34:36.677Z,3.37
2017-12-28T13:37:04.408Z,3.37
2017-12-28T13:39:32.119Z,3.43
2017-12-28T13:41:59.781Z,3.07
2017-12-28T13:44:27.743Z,3.77
2017-12-28T13:46:55.447Z,4.00
2017-12-28T13:49:23.144Z,3.20
2017-12-28T13:51:51.648Z,3.47
2017-12-28T13:54:19.354Z,3.43
2017-12-28T13:56:47.042Z,3.73
2017-12-28T13:59:14.774Z,3.20
2017-12-28T14:01:42.496Z,3.50
2017-12-28T14:04:10.204Z,3.33
2017-12-28T14:06:37.911Z,3.10
2017-12-28T14:09:05.656Z,3.57
2017-12-28T14:11:33.356Z,3.20
2017-12-28T14:14:03.963Z,3.40
2017-12-28T14:16:31.660Z,3.53
2017-12-28T14:18:59.349Z,4.60
2017-12-28T14:21:27.796Z,3.10
2017-12-28T14:23:56.232Z,3.13
2017-12-28T14:26:23.939Z,3.40
2017-12-28T14:28:52.420Z,2.87
2017-12-28T14:31:20.130Z,2.83
2017-12-28T14:33:48.018Z,3.40
2017-12-28T14:36:15.746Z,3.30
2017-12-28T14:38:43.468Z,3.20
2017-12-28T14:41:11.147Z,2.87
2017-12-28T14:43:38.825Z,2.97
2017-12-28T14:46:06.551Z,3.37
2017-12-28T14:48:34.294Z,3.03
2017-12-28T14:51:01.995Z,2.83
2017-12-28T14:53:29.712Z,3.20
2017-12-28T14:55:57.596Z,3.47
2017-12-28T14:58:25.354Z,3.20
2017-12-28T15:00:53.049Z,3.03
2017-12-28T15:03:20.718Z,3.40
2017-12-28T15:05:52.566Z,3.00
2017-12-28T15:08:20.280Z,3.23
2017-12-28T15:10:47.997Z,2.80
2017-12-28T15:13:15.704Z,2.73
2017-12-28T15:15:43.392Z,2.80
2017-12-28T15:18:11.049Z,3.30
2017-12-28T15:20:38.737Z,2.63
2017-12-28T15:23:06.450Z,3.37
2017-12-28T15:25:34.145Z,3.33
2017-12-28T15:28:01.881Z,3.93
2017-12-28T15:30:29.629Z,3.47
2017-12-28T15:32:57.532Z,3.57
2017-12-28T15:35:29.674Z,3.40
2017-12-28T15:37:58.164Z,3.63
2017-12-28T15:40:25.862Z,3.73
2017-12-28T15:42:53.555Z,3.00
2017-12-28T15:45:21.270Z,3.60
2017-12-28T15:47:48.954Z,3.57
2017-12-28T15:50:16.664Z,3.50
2017-12-28T15:52:44.366Z,3.33
2017-12-28T15:55:12.148Z,3.67
2017-12-28T15:57:39.838Z,3.93
2017-12-28T16:00:07.558Z,3.70
2017-12-28T16:02:35.255Z,4.40
2017-12-28T16:05:04.111Z,4.00
2017-12-28T16:07:31.829Z,4.00
2017-12-28T16:09:59.535Z,4.03
2017-12-28T16:12:27.257Z,4.17
2017-12-28T16:14:54.941Z,4.57
2017-12-28T16:17:22.646Z,4.77
2017-12-28T16:19:50.340Z,4.60
2017-12-28T16:22:18.031Z,5.70
2017-12-28T16:24:46.429Z,5.30
2017-12-28T16:27:14.171Z,5.10
2017-12-28T16:29:41.904Z,5.63
2017-12-28T16:32:09.621Z,5.27
2017-12-28T16:34:39.271Z,5.10
2017-12-28T16:37:06.984Z,5.47
2017-12-28T16:39:34.747Z,5.23
2017-12-28T16:42:03.258Z,5.77
2017-12-28T16:44:30.954Z,5.50
2017-12-28T16:46:58.654Z,5.57
2017-12-28T16:49:26.320Z,5.67
2017-12-28T16:51:54.747Z,6.07
2017-12-28T16:54:22.500Z,5.23
2017-12-28T16:56:50.237Z,5.10
2017-12-28T16:59:18.577Z,4.90
2017-12-28T17:01:46.301Z,5.37
2017-12-28T17:04:14.962Z,4.67
2017-12-28T17:06:43.493Z,5.20
2017-12-28T17:09:11.183Z,5.07
2017-12-28T17:11:38.906Z,5.40
2017-12-28T17:14:06.587Z,4.90
2017-12-28T17:16:34.252Z,5.93
2017-12-28T17:19:01.991Z,4.90
2017-12-28T17:21:29.654Z,5.20
2017-12-28T17:23:57.313Z,4.90
2017-12-28T17:26:25.001Z,5.47
2017-12-28T17:28:52.656Z,4.60
2017-12-28T17:31:20.255Z,5.57
2017-12-28T17:33:47.857Z,4.70
2017-12-28T17:36:15.475Z,4.67
2017-12-28T17:38:43.109Z,4.90
2017-12-28T17:41:10.772Z,4.90
2017-12-28T17:43:38.495Z,4.67
2017-12-28T17:46:06.205Z,4.83
2017-12-28T17:48:33.849Z,5.50
2017-12-28T17:51:01.557Z,4.53
2017-12-28T17:53:29.246Z,4.77
2017-12-28T17:55:59.890Z,4.50
2017-12-28T17:58:27.611Z,4.23
2017-12-28T18:00:55.280Z,4.57
2017-12-28T18:03:23.008Z,4.80
2017-12-28T18:05:50.705Z,4.63
2017-12-28T18:08:18.366Z,4.37
2017-12-28T18:10:46.018Z,4.53
2017-12-28T18:13:13.790Z,4.40
2017-12-28T18:15:41.453Z,4.33
2017-12-28T18:18:09.174Z,4.53
2017-12-28T18:20:36.907Z,4.50
2017-12-28T18:23:04.524Z,4.47
2017-12-28T18:25:33.201Z,4.30
2017-12-28T18:28:00.868Z,4.50
2017-12-28T18:30:28.628Z,4.47
2017-12-28T18:32:56.316Z,4.03
2017-12-28T18:35:24.039Z,4.97
2017-12-28T18:37:51.763Z,4.67
2017-12-28T18:40:19.424Z,4.07
2017-12-28T18:42:47.164Z,4.07
2017-12-28T18:45:15.295Z,4.80
2017-12-28T18:47:43.750Z,4.30
2017-12-28T18:50:11.413Z,4.73
2017-12-28T18:52:39.149Z,4.70
2017-12-28T18:55:14.376Z,4.10
2017-12-28T18:57:42.082Z,4.50
2017-12-28T19:00:09.844Z,4.73
2017-12-28T19:02:37.514Z,4.70
2017-12-28T19:05:05.219Z,5.10
2017-12-28T19:07:32.910Z,5.00
2017-12-28T19:10:00.632Z,5.23
2017-12-28T19:12:28.345Z,4.83
2017-12-28T19:14:56.030Z,5.03
2017-12-28T19:17:23.711Z,5.27
2017-12-28T19:19:52.178Z,5.20
2017-12-28T19:22:19.871Z,5.23
2017-12-28T19:24:49.726Z,5.20
2017-12-28T19:27:17.439Z,5.50
2017-12-28T19:29:45.973Z,4.77
2017-12-28T19:32:13.691Z,5.60
2017-12-28T19:34:41.374Z,5.10
2017-12-28T19:37:09.126Z,5.73
2017-12-28T19:39:36.898Z,5.50
2017-12-28T19:42:04.628Z,5.80
2017-12-28T19:44:33.169Z,5.37
2017-12-28T19:47:00.918Z,4.97
2017-12-28T19:49:28.666Z,5.77
2017-12-28T19:51:56.416Z,5.37
2017-12-28T19:54:25.091Z,4.87
2017-12-28T19:56:52.769Z,5.40
2017-12-28T19:59:21.307Z,5.07
2017-12-28T20:01:49.033Z,5.60
2017-12-28T20:04:16.792Z,5.47
2017-12-28T20:06:44.519Z,5.83
2017-12-28T20:09:12.219Z,6.10
2017-12-28T20:11:39.893Z,5.93
2017-12-28T20:14:07.546Z,5.90
2017-12-28T20:16:35.284Z,5.77
2017-12-28T20:19:02.981Z,6.30
2017-12-28T20:21:31.472Z,5.83
2017-12-28T20:24:02.894Z,6.00
2017-12-28T20:26:30.601Z,6.13
2017-12-28T20:28:58.321Z,6.83
2017-12-28T20:31:26.804Z,6.50
2017-12-28T20:33:54.522Z,7.23
2017-12-28T20:36:22.219Z,7.03
2017-12-28T20:38:49.907Z,7.33
2017-12-28T20:41:18.408Z,6.97
2017-12-28T20:43:46.123Z,7.97
2017-12-28T20:46:13.852Z,7.77
2017-12-28T20:48:41.591Z,6.97
2017-12-28T20:51:09.293Z,8.33
2017-12-28T20:53:36.936Z,7.90
2017-12-28T20:56:04.657Z,7.53
2017-12-28T20:58:32.373Z,7.63
2017-12-28T21:01:00.073Z,7.40
2017-12-28T21:03:27.758Z,7.80
2017-12-28T21:05:55.512Z,8.20
2017-12-28T21:08:23.239Z,8.57
2017-12-28T21:10:50.952Z,7.73
2017-12-28T21:13:19.412Z,8.20
2017-12-28T21:15:47.225Z,7.67
2017-12-28T21:18:14.884Z,8.00
2017-12-28T21:20:42.596Z,7.67
2017-12-28T21:23:10.261Z,8.27
2017-12-28T21:25:37.917Z,7.80
2017-12-28T21:28:05.674Z,7.23
2017-12-28T21:30:33.405Z,7.50
2017-12-28T21:33:01.096Z,9.07
2017-12-28T21:35:28.715Z,8.23
2017-12-28T21:37:56.396Z,8.00
2017-12-28T21:40:24.091Z,8.23
2017-12-28T21:42:51.740Z,8.17
2017-12-28T21:45:20.705Z,8.37
2017-12-28T21:47:48.452Z,7.80
2017-12-28T21:50:16.098Z,8.47
2017-12-28T21:52:43.788Z,8.27
2017-12-28T21:55:12.246Z,8.70
2017-12-28T21:57:39.939Z,9.37
2017-12-28T22:00:08.391Z,8.90
2017-12-28T22:02:36.110Z,8.57
2017-12-28T22:05:03.845Z,9.13
2017-12-28T22:07:32.372Z,8.63
2017-12-28T22:10:00.089Z,9.07
2017-12-28T22:12:28.587Z,9.10
2017-12-28T22:14:57.563Z,9.70
2017-12-28T22:17:25.288Z,10.27
2017-12-28T22:19:53.030Z,8.77
2017-12-28T22:22:20.672Z,9.20
2017-12-28T22:24:49.135Z,9.20
2017-12-28T22:27:16.997Z,8.60
2017-12-28T22:29:44.676Z,8.47
2017-12-28T22:32:12.378Z,9.60
2017-12-28T22:34:40.025Z,8.50
2017-12-28T22:37:07.768Z,8.77
2017-12-28T22:39:35.463Z,8.67
2017-12-28T22:42:03.206Z,9.53
2017-12-28T22:44:31.014Z,8.97
2017-12-28T22:46:58.725Z,10.30
2017-12-28T22:49:27.242Z,9.60
2017-12-28T22:51:54.906Z,9.30
2017-12-28T22:54:22.585Z,9.13
2017-12-28T22:56:50.259Z,8.40
2017-12-28T22:59:18.257Z,8.57
2017-12-28T23:01:45.936Z,9.43
2017-12-28T23:04:14.395Z,9.20
2017-12-28T23:06:42.102Z,8.90
2017-12-28T23:09:09.772Z,9.23
2017-12-28T23:11:37.393Z,9.47
2017-12-28T23:14:05.183Z,9.60
2017-12-28T23:16:32.886Z,9.67
2017-12-28T23:19:00.575Z,10.57
2017-12-28T23:21:29.413Z,9.70
2017-12-28T23:23:57.143Z,9.50
2017-12-28T23:26:24.817Z,10.87
2017-12-28T23:28:53.270Z,9.93
2017-12-28T23:31:20.995Z,9.57
2017-12-28T23:33:48.675Z,10.50
2017-12-28T23:36:16.389Z,10.50
2017-12-28T23:38:44.855Z,9.80
2017-12-28T23:41:12.577Z,10.50
2017-12-28T23:43:40.265Z,10.40
2017-12-28T23:46:07.995Z,9.37
2017-12-28T23:48:35.642Z,10.70
2017-12-28T23:51:04.116Z,11.13
2017-12-28T23:53:31.815Z,11.73
2017-12-28T23:55:59.427Z,10.37
2017-12-28T23:58:27.834Z,11.33
